Time;durP1;ratioP1;P1;durP2;ratioP2;P2;SDS_P1;SDS_P2;PMS_P1;PMS_P2;Temp;Humidity;BMP_temperature;BMP_pressure;BME280_temperature;BME280_humidity;BME280_pressure;Samples;Min_cycle;Max_cycle;Signal;HPM_P1;HPM_P2
2023/04/25 00:01:19;;;;;;;2.08;0.80;;;;;;;;;;5031662;28;20076;-68
2023/04/25 00:03:46;;;;;;;7.03;1.33;;;;;;;;;;5036942;28;20124;-69
2023/04/25 00:06:12;;;;;;;4.07;1.05;;;;;;;;;;5035480;28;20167;-71
2023/04/25 00:08:39;;;;;;;1.60;0.85;;;;;;;;;;5024390;28;20059;-69
2023/04/25 00:11:05;;;;;;;3.20;1.00;;;;;;;;;;5019526;28;20045;-72
2023/04/25 00:13:32;;;;;;;4.85;1.10;;;;;;;;;;5036909;28;20125;-68
2023/04/25 00:16:00;;;;;;;4.65;1.05;;;;;;;;;;5032633;28;20092;-69
2023/04/25 00:18:28;;;;;;;3.58;1.08;;;;;;;;;;5037815;28;20088;-70
2023/04/25 00:20:55;;;;;;;5.35;1.15;;;;;;;;;;5012927;28;20061;-71
2023/04/25 00:23:22;;;;;;;3.00;1.00;;;;;;;;;;5036544;28;20064;-72
2023/04/25 00:25:49;;;;;;;5.03;0.93;;;;;;;;;;5033293;28;20140;-69
2023/04/25 00:28:16;;;;;;;1.85;1.00;;;;;;;;;;5037559;28;20089;-67
2023/04/25 00:30:43;;;;;;;5.28;1.10;;;;;;;;;;5013390;28;20140;-70
2023/04/25 00:33:11;;;;;;;2.60;1.08;;;;;;;;;;5017859;28;20125;-68
2023/04/25 00:35:37;;;;;;;4.93;1.00;;;;;;;;;;5012282;28;20088;-69
2023/04/25 00:38:04;;;;;;;4.07;0.90;;;;;;;;;;5015324;28;20160;-68
2023/04/25 00:40:30;;;;;;;2.35;0.98;;;;;;;;;;5019286;28;20143;-69
2023/04/25 00:42:57;;;;;;;6.28;1.05;;;;;;;;;;5029912;28;20071;-69
2023/04/25 00:45:27;;;;;;;2.53;0.90;;;;;;;;;;5039321;28;20076;-69
2023/04/25 00:47:55;;;;;;;2.90;1.13;;;;;;;;;;5018168;28;20135;-67
2023/04/25 00:50:23;;;;;;;2.75;1.13;;;;;;;;;;5021915;28;20151;-70
2023/04/25 00:52:49;;;;;;;3.17;1.20;;;;;;;;;;4995978;28;20053;-69
2023/04/25 00:55:16;;;;;;;3.60;1.30;;;;;;;;;;5006061;28;20060;-70
2023/04/25 00:57:43;;;;;;;5.22;1.23;;;;;;;;;;5002232;28;20062;-69
2023/04/25 01:00:10;;;;;;;4.30;1.27;;;;;;;;;;5033260;28;20067;-69
2023/04/25 01:02:39;;;;;;;5.35;1.40;;;;;;;;;;5009426;28;20169;-70
2023/04/25 01:05:05;;;;;;;3.55;1.20;;;;;;;;;;5014671;28;20128;-70
2023/04/25 01:07:34;;;;;;;3.05;0.85;;;;;;;;;;5032222;28;20099;-68
2023/04/25 01:10:00;;;;;;;2.65;0.95;;;;;;;;;;4995671;28;20192;-67
2023/04/25 01:12:26;;;;;;;4.80;1.38;;;;;;;;;;5002233;28;20065;-69
2023/04/25 01:14:53;;;;;;;3.75;1.17;;;;;;;;;;5000636;28;20056;-68
2023/04/25 01:17:20;;;;;;;2.08;1.10;;;;;;;;;;5002822;28;20076;-68
2023/04/25 01:19:48;;;;;;;3.13;1.10;;;;;;;;;;5011782;28;20061;-71
2023/04/25 01:22:16;;;;;;;4.55;1.00;;;;;;;;;;5022268;28;20061;-69
2023/04/25 01:24:43;;;;;;;2.17;1.10;;;;;;;;;;4998089;28;20065;-67
2023/04/25 01:27:10;;;;;;;4.35;1.00;;;;;;;;;;5005914;28;20060;-71
2023/04/25 01:29:37;;;;;;;2.90;1.13;;;;;;;;;;5014884;28;20080;-70
2023/04/25 01:32:03;;;;;;;4.63;1.30;;;;;;;;;;5030262;28;20050;-68
2023/04/25 01:34:30;;;;;;;4.90;1.10;;;;;;;;;;5002117;28;20096;-70
2023/04/25 01:36:57;;;;;;;6.57;1.38;;;;;;;;;;5015807;28;20073;-68
2023/04/25 01:39:25;;;;;;;5.20;1.08;;;;;;;;;;5000483;28;20080;-71
2023/04/25 01:41:52;;;;;;;7.35;1.70;;;;;;;;;;5022318;28;20053;-67
2023/04/25 01:44:18;;;;;;;4.70;1.15;;;;;;;;;;5018417;28;20163;-70
2023/04/25 01:46:45;;;;;;;4.85;1.33;;;;;;;;;;5033961;28;20057;-70
2023/04/25 01:49:11;;;;;;;1.38;0.90;;;;;;;;;;5017574;28;20061;-68
2023/04/25 01:51:37;;;;;;;6.53;1.20;;;;;;;;;;5025336;28;20104;-71
2023/04/25 01:54:04;;;;;;;2.97;1.10;;;;;;;;;;5000079;28;20049;-69
2023/04/25 01:56:34;;;;;;;3.20;1.10;;;;;;;;;;5020898;28;20081;-70
2023/04/25 01:59:00;;;;;;;4.25;1.17;;;;;;;;;;5011007;28;20061;-71
2023/04/25 02:01:27;;;;;;;6.05;1.25;;;;;;;;;;5035434;28;20093;-71
2023/04/25 02:03:53;;;;;;;3.58;1.20;;;;;;;;;;5018717;28;20136;-68
2023/04/25 02:06:19;;;;;;;1.70;0.80;;;;;;;;;;5025112;28;20044;-69
2023/04/25 02:08:46;;;;;;;2.45;1.10;;;;;;;;;;5055480;28;20044;-68
2023/04/25 02:11:12;;;;;;;4.40;1.17;;;;;;;;;;5018821;28;20049;-69
2023/04/25 02:13:40;;;;;;;3.72;1.38;;;;;;;;;;5020324;28;20048;-69
2023/04/25 02:16:09;;;;;;;5.37;1.40;;;;;;;;;;5017855;28;20140;-71
2023/04/25 02:18:36;;;;;;;5.97;1.73;;;;;;;;;;5023624;28;20063;-69
2023/04/25 02:21:03;;;;;;;4.38;1.50;;;;;;;;;;4998088;28;20050;-70
2023/04/25 02:23:29;;;;;;;4.90;1.20;;;;;;;;;;5000671;28;21625;-71
2023/04/25 02:25:57;;;;;;;4.35;1.02;;;;;;;;;;5020578;28;20135;-68
2023/04/25 02:28:24;;;;;;;5.10;1.30;;;;;;;;;;5022108;28;20053;-71
2023/04/25 02:30:52;;;;;;;5.35;1.27;;;;;;;;;;5018545;28;20140;-69
2023/04/25 02:33:18;;;;;;;5.53;1.10;;;;;;;;;;4995703;28;20069;-70
2023/04/25 02:35:45;;;;;;;5.82;1.10;;;;;;;;;;5018091;28;20052;-69
2023/04/25 02:38:11;;;;;;;9.60;1.30;;;;;;;;;;5028514;28;20102;-68
2023/04/25 02:40:38;;;;;;;5.80;1.13;;;;;;;;;;5017538;28;20095;-68
2023/04/25 02:43:04;;;;;;;3.92;1.17;;;;;;;;;;5019876;28;20089;-69
2023/04/25 02:45:31;;;;;;;3.90;1.20;;;;;;;;;;4995061;28;21213;-70
2023/04/25 02:47:59;;;;;;;4.22;1.00;;;;;;;;;;5019475;28;20096;-69
2023/04/25 02:50:25;;;;;;;4.97;1.40;;;;;;;;;;5020830;28;20054;-70
2023/04/25 02:52:51;;;;;;;5.20;1.15;;;;;;;;;;5019063;28;20133;-70
2023/04/25 02:55:18;;;;;;;4.97;1.40;;;;;;;;;;5014581;28;20100;-70
2023/04/25 02:57:45;;;;;;;4.93;1.15;;;;;;;;;;5016939;28;20155;-71
2023/04/25 03:00:14;;;;;;;5.75;1.33;;;;;;;;;;5020270;28;20057;-70
2023/04/25 03:02:40;;;;;;;4.28;1.30;;;;;;;;;;5016759;28;20057;-67
2023/04/25 03:05:08;;;;;;;4.20;1.58;;;;;;;;;;5008306;28;20140;-71
2023/04/25 03:07:39;;;;;;;5.57;1.40;;;;;;;;;;5015508;28;20053;-70
2023/04/25 03:10:06;;;;;;;6.10;1.40;;;;;;;;;;5020332;28;20061;-70
2023/04/25 03:12:33;;;;;;;6.32;1.20;;;;;;;;;;5016889;28;20061;-70
2023/04/25 03:15:00;;;;;;;4.60;1.15;;;;;;;;;;5008722;28;20049;-68
2023/04/25 03:17:28;;;;;;;4.45;1.30;;;;;;;;;;5012884;28;20824;-69
2023/04/25 03:19:56;;;;;;;4.47;1.40;;;;;;;;;;5020165;28;20092;-71
2023/04/25 03:22:24;;;;;;;3.70;1.17;;;;;;;;;;5018471;28;20085;-67
2023/04/25 03:24:50;;;;;;;5.95;1.30;;;;;;;;;;5007354;28;20152;-68
2023/04/25 03:27:17;;;;;;;2.35;1.10;;;;;;;;;;5008907;28;20063;-69
2023/04/25 03:29:43;;;;;;;5.70;1.27;;;;;;;;;;5020021;28;20200;-68
2023/04/25 03:32:10;;;;;;;6.63;1.50;;;;;;;;;;5018924;28;20060;-69
2023/04/25 03:34:36;;;;;;;4.22;1.50;;;;;;;;;;5014448;28;20119;-69
2023/04/25 03:37:03;;;;;;;1.92;1.10;;;;;;;;;;5019400;28;20061;-70
2023/04/25 03:39:31;;;;;;;3.25;1.15;;;;;;;;;;5011631;28;20141;-67
2023/04/25 03:41:57;;;;;;;5.03;1.10;;;;;;;;;;5022678;28;20049;-70
2023/04/25 03:44:25;;;;;;;4.18;1.38;;;;;;;;;;4981561;28;20068;-72
2023/04/25 03:46:51;;;;;;;3.38;1.38;;;;;;;;;;4950241;28;20062;-73
2023/04/25 03:49:18;;;;;;;3.67;1.10;;;;;;;;;;4937566;28;20050;-73
2023/04/25 03:51:45;;;;;;;4.60;1.80;;;;;;;;;;4943240;28;20051;-69
2023/04/25 03:54:11;;;;;;;4.75;1.55;;;;;;;;;;4949576;28;20093;-70
2023/04/25 03:56:39;;;;;;;6.88;1.70;;;;;;;;;;4963464;28;20065;-69
2023/04/25 03:59:07;;;;;;;4.50;1.80;;;;;;;;;;5027973;28;20058;-67
2023/04/25 04:01:34;;;;;;;5.78;1.50;;;;;;;;;;5040537;28;20053;-70
2023/04/25 04:04:00;;;;;;;6.15;1.70;;;;;;;;;;5037107;28;20111;-69
2023/04/25 04:06:27;;;;;;;4.10;1.50;;;;;;;;;;5028756;28;20120;-69
2023/04/25 04:08:53;;;;;;;3.90;1.70;;;;;;;;;;5031779;28;20052;-68
2023/04/25 04:11:20;;;;;;;3.65;1.30;;;;;;;;;;5014901;28;20084;-71
2023/04/25 04:13:51;;;;;;;6.72;1.30;;;;;;;;;;5038682;28;20065;-70
2023/04/25 04:16:18;;;;;;;4.38;1.77;;;;;;;;;;4986803;28;20121;-68
2023/04/25 04:18:45;;;;;;;4.57;1.27;;;;;;;;;;4986069;28;20056;-71
2023/04/25 04:21:12;;;;;;;4.05;1.27;;;;;;;;;;5011729;28;20099;-69
2023/04/25 04:23:38;;;;;;;5.13;1.38;;;;;;;;;;5040042;28;20053;-67
2023/04/25 04:26:05;;;;;;;3.38;1.38;;;;;;;;;;5033136;28;20115;-68
2023/04/25 04:28:31;;;;;;;3.78;1.50;;;;;;;;;;5026012;28;20110;-69
2023/04/25 04:31:03;;;;;;;6.88;1.52;;;;;;;;;;5022282;28;20156;-71
2023/04/25 04:33:32;;;;;;;7.63;1.48;;;;;;;;;;5017655;28;20057;-71
2023/04/25 04:35:59;;;;;;;4.65;1.45;;;;;;;;;;5029569;28;20128;-71
2023/04/25 04:38:26;;;;;;;5.30;1.48;;;;;;;;;;5043342;28;20057;-72
2023/04/25 04:40:53;;;;;;;3.67;1.30;;;;;;;;;;5022119;28;20115;-70
2023/04/25 04:43:19;;;;;;;4.63;1.48;;;;;;;;;;5036476;28;20068;-68
2023/04/25 04:45:46;;;;;;;6.20;1.40;;;;;;;;;;5010513;28;20084;-69
2023/04/25 04:48:14;;;;;;;4.97;1.42;;;;;;;;;;5041578;28;20060;-70
2023/04/25 04:50:40;;;;;;;4.27;1.60;;;;;;;;;;5039940;28;20085;-69
2023/04/25 04:53:08;;;;;;;6.57;1.52;;;;;;;;;;5040648;28;20144;-71
2023/04/25 04:55:35;;;;;;;5.18;1.67;;;;;;;;;;5018817;28;20141;-70
2023/04/25 04:58:04;;;;;;;4.85;1.70;;;;;;;;;;5017938;28;20068;-70
2023/04/25 05:00:31;;;;;;;5.18;1.70;;;;;;;;;;5038443;28;20480;-69
2023/04/25 05:02:58;;;;;;;5.70;1.85;;;;;;;;;;5022272;28;20115;-70
2023/04/25 05:05:26;;;;;;;4.32;1.70;;;;;;;;;;5013629;28;20329;-70
2023/04/25 05:07:52;;;;;;;6.15;1.67;;;;;;;;;;5021566;28;20115;-71
2023/04/25 05:10:20;;;;;;;6.68;1.45;;;;;;;;;;5040791;28;20142;-68
2023/04/25 05:12:46;;;;;;;4.63;1.50;;;;;;;;;;5020365;28;20057;-69
2023/04/25 05:15:13;;;;;;;7.07;1.45;;;;;;;;;;5005595;28;20052;-68
2023/04/25 05:17:39;;;;;;;3.80;1.33;;;;;;;;;;5047683;28;20101;-70
2023/04/25 05:20:09;;;;;;;5.70;1.98;;;;;;;;;;5047124;28;20048;-70
2023/04/25 05:22:37;;;;;;;4.32;1.42;;;;;;;;;;5058890;28;20131;-68
2023/04/25 05:25:08;;;;;;;4.90;1.23;;;;;;;;;;5042517;28;20052;-69
2023/04/25 05:27:37;;;;;;;3.97;1.40;;;;;;;;;;5050479;28;20439;-69
2023/04/25 05:30:09;;;;;;;6.25;1.90;;;;;;;;;;5025808;28;20057;-70
2023/04/25 05:32:36;;;;;;;8.48;1.80;;;;;;;;;;5046204;28;20120;-70
2023/04/25 05:35:06;;;;;;;6.45;2.45;;;;;;;;;;5029877;28;20060;-69
2023/04/25 05:37:33;;;;;;;7.57;2.22;;;;;;;;;;5038928;28;20137;-68
2023/04/25 05:40:01;;;;;;;6.97;1.75;;;;;;;;;;5044242;28;20063;-68
2023/04/25 05:42:27;;;;;;;4.32;1.38;;;;;;;;;;5046411;28;20094;-70
2023/04/25 05:45:09;;;;;;;4.22;1.50;;;;;;;;;;5040388;28;20052;-69
2023/04/25 05:47:36;;;;;;;6.55;1.75;;;;;;;;;;5042902;28;20070;-70
2023/04/25 05:50:02;;;;;;;5.47;1.67;;;;;;;;;;5043622;28;20052;-67
2023/04/25 05:52:29;;;;;;;4.25;1.50;;;;;;;;;;5062472;28;20054;-70
2023/04/25 05:54:55;;;;;;;6.85;1.70;;;;;;;;;;4994954;28;20053;-69
2023/04/25 05:57:24;;;;;;;6.85;1.65;;;;;;;;;;5038100;28;20080;-68
2023/04/25 05:59:51;;;;;;;6.40;1.80;;;;;;;;;;5039203;28;20048;-69
2023/04/25 06:02:17;;;;;;;5.95;1.40;;;;;;;;;;5049930;28;20178;-68
2023/04/25 06:04:44;;;;;;;6.45;1.80;;;;;;;;;;5055700;28;20052;-71
2023/04/25 06:07:11;;;;;;;7.38;1.77;;;;;;;;;;5035348;28;20056;-68
2023/04/25 06:09:38;;;;;;;4.90;1.50;;;;;;;;;;5058177;28;20045;-70
2023/04/25 06:12:05;;;;;;;4.13;1.45;;;;;;;;;;5043584;28;20064;-71
2023/04/25 06:14:34;;;;;;;5.07;1.23;;;;;;;;;;5054437;28;20067;-70
2023/04/25 06:17:06;;;;;;;10.82;1.70;;;;;;;;;;5040627;28;20106;-72
2023/04/25 06:19:32;;;;;;;6.35;1.55;;;;;;;;;;5034173;28;20058;-71
2023/04/25 06:21:59;;;;;;;4.20;1.50;;;;;;;;;;5062526;28;20052;-72
2023/04/25 06:24:25;;;;;;;4.63;1.52;;;;;;;;;;5026346;28;20076;-70
2023/04/25 06:26:52;;;;;;;8.18;1.75;;;;;;;;;;5044194;28;20056;-71
2023/04/25 06:29:18;;;;;;;5.03;1.52;;;;;;;;;;5032789;28;20067;-71
2023/04/25 06:31:47;;;;;;;4.13;1.42;;;;;;;;;;5061428;28;20053;-71
2023/04/25 06:34:17;;;;;;;5.78;1.40;;;;;;;;;;5060679;28;20099;-70
2023/04/25 06:36:45;;;;;;;3.83;1.27;;;;;;;;;;5028175;28;20044;-69
2023/04/25 06:39:11;;;;;;;4.22;1.77;;;;;;;;;;5036122;28;20135;-71
2023/04/25 06:41:38;;;;;;;3.97;1.48;;;;;;;;;;5057939;28;20134;-70
2023/04/25 06:44:04;;;;;;;2.72;1.15;;;;;;;;;;5061308;28;20071;-71
2023/04/25 06:46:31;;;;;;;3.13;1.45;;;;;;;;;;5022247;28;20139;-68
2023/04/25 06:48:59;;;;;;;5.72;1.25;;;;;;;;;;5061026;28;20140;-67
2023/04/25 06:51:28;;;;;;;3.95;1.40;;;;;;;;;;5040131;28;20143;-69
2023/04/25 06:53:54;;;;;;;3.65;1.35;;;;;;;;;;5048938;28;20059;-68
2023/04/25 06:56:23;;;;;;;5.55;1.30;;;;;;;;;;5042927;28;20083;-70
2023/04/25 06:58:53;;;;;;;3.85;1.10;;;;;;;;;;5060374;28;20054;-69
2023/04/25 07:01:19;;;;;;;3.15;1.15;;;;;;;;;;5032050;28;20322;-72
2023/04/25 07:03:48;;;;;;;7.95;1.50;;;;;;;;;;5061224;28;20092;-70
2023/04/25 07:06:14;;;;;;;;;;;;;;;;;;5021802;28;20117;-70
2023/04/25 07:08:42;;;;;;;4.60;1.40;;;;;;;;;;5045804;28;20007;-73
2023/04/25 07:11:09;;;;;;;11.20;1.95;;;;;;;;;;5038103;28;20117;-69
2023/04/25 07:13:36;;;;;;;5.03;1.55;;;;;;;;;;5066246;28;20044;-72
2023/04/25 07:16:03;;;;;;;3.50;1.38;;;;;;;;;;5017506;28;20067;-69
2023/04/25 07:18:29;;;;;;;3.25;1.50;;;;;;;;;;5041693;28;20063;-70
2023/04/25 07:21:00;;;;;;;5.53;1.90;;;;;;;;;;5058857;28;20055;-67
2023/04/25 07:23:27;;;;;;;2.97;1.30;;;;;;;;;;5032988;28;21782;-69
2023/04/25 07:25:58;;;;;;;3.80;1.38;;;;;;;;;;5057432;28;20072;-73
2023/04/25 07:28:24;;;;;;;4.53;1.25;;;;;;;;;;5039082;28;20059;-69
2023/04/25 07:30:52;;;;;;;4.80;1.25;;;;;;;;;;5042619;28;20066;-70
2023/04/25 07:33:20;;;;;;;2.33;1.10;;;;;;;;;;5031306;28;20095;-68
2023/04/25 07:35:47;;;;;;;3.35;1.20;;;;;;;;;;4980171;28;20056;-68
2023/04/25 07:38:13;;;;;;;7.45;1.25;;;;;;;;;;5032960;28;20056;-72
2023/04/25 07:40:40;;;;;;;3.72;1.10;;;;;;;;;;5059928;28;20060;-70
2023/04/25 07:43:08;;;;;;;7.25;1.50;;;;;;;;;;5042357;28;20047;-69
2023/04/25 07:45:40;;;;;;;4.70;1.45;;;;;;;;;;5021009;28;20074;-70
2023/04/25 07:48:07;;;;;;;7.47;1.75;;;;;;;;;;5049037;28;20109;-70
2023/04/25 07:50:33;;;;;;;3.95;0.95;;;;;;;;;;5040097;28;20135;-71
2023/04/25 07:53:00;;;;;;;3.35;1.45;;;;;;;;;;5053519;28;20053;-68
2023/04/25 07:55:28;;;;;;;4.63;1.30;;;;;;;;;;5010930;28;22409;-71
2023/04/25 07:57:59;;;;;;;3.58;0.90;;;;;;;;;;5020969;28;20053;-69
2023/04/25 08:00:38;;;;;;;4.50;1.20;;;;;;;;;;5041813;28;20084;-71
2023/04/25 08:03:06;;;;;;;1.83;1.00;;;;;;;;;;5050392;28;20055;-73
2023/04/25 08:05:33;;;;;;;7.32;1.50;;;;;;;;;;5003300;28;20132;-72
2023/04/25 08:08:00;;;;;;;2.25;1.00;;;;;;;;;;5050082;28;20068;-69
2023/04/25 08:10:27;;;;;;;2.97;1.02;;;;;;;;;;5056398;28;20120;-71
2023/04/25 08:12:53;;;;;;;4.75;1.10;;;;;;;;;;5062138;28;20050;-68
2023/04/25 08:15:20;;;;;;;3.92;1.23;;;;;;;;;;5034316;28;20079;-70
2023/04/25 08:17:48;;;;;;;4.65;1.30;;;;;;;;;;5062009;28;20056;-69
2023/04/25 08:20:14;;;;;;;5.57;1.45;;;;;;;;;;5047708;28;20100;-69
2023/04/25 08:22:41;;;;;;;5.00;1.17;;;;;;;;;;5045666;28;20168;-69
2023/04/25 08:25:11;;;;;;;5.70;1.27;;;;;;;;;;5055331;28;20080;-70
2023/04/25 08:27:37;;;;;;;5.60;1.13;;;;;;;;;;5036469;28;20084;-68
2023/04/25 08:30:04;;;;;;;7.80;1.77;;;;;;;;;;5042229;28;20175;-69
2023/04/25 08:32:30;;;;;;;8.95;1.33;;;;;;;;;;5045350;28;20068;-73
2023/04/25 08:34:58;;;;;;;4.80;1.40;;;;;;;;;;5040256;28;20117;-68
2023/04/25 08:37:25;;;;;;;4.47;1.38;;;;;;;;;;5046150;28;20072;-68
2023/04/25 08:39:53;;;;;;;5.18;1.27;;;;;;;;;;5038466;28;20063;-68
2023/04/25 08:42:20;;;;;;;6.57;1.40;;;;;;;;;;5042550;28;20041;-69
2023/04/25 08:44:47;;;;;;;8.18;1.42;;;;;;;;;;5016816;28;20214;-69
2023/04/25 08:47:14;;;;;;;6.05;1.17;;;;;;;;;;5019490;28;20080;-72
2023/04/25 08:49:40;;;;;;;2.03;0.70;;;;;;;;;;5037766;28;20056;-68
2023/04/25 08:52:11;;;;;;;4.70;1.02;;;;;;;;;;5046798;28;20057;-68
2023/04/25 08:54:38;;;;;;;6.82;1.35;;;;;;;;;;5041792;28;20053;-71
2023/04/25 08:57:05;;;;;;;3.47;1.30;;;;;;;;;;5037479;28;20051;-72
2023/04/25 08:59:34;;;;;;;3.78;1.70;;;;;;;;;;5035208;28;20063;-69
2023/04/25 09:02:01;;;;;;;4.22;1.10;;;;;;;;;;5039554;28;20061;-68
2023/04/25 09:04:27;;;;;;;8.70;1.33;;;;;;;;;;5040777;28;20135;-69
2023/04/25 09:06:54;;;;;;;4.28;1.00;;;;;;;;;;5008251;28;20188;-68
2023/04/25 09:09:24;;;;;;;2.78;0.98;;;;;;;;;;5032777;28;20060;-68
2023/04/25 09:11:51;;;;;;;4.93;0.90;;;;;;;;;;5038032;28;20059;-70
2023/04/25 09:14:20;;;;;;;2.75;1.02;;;;;;;;;;5040348;28;20049;-69
2023/04/25 09:17:00;;;;;;;1.40;0.80;;;;;;;;;;5036525;28;20052;-68
2023/04/25 09:19:28;;;;;;;3.47;1.02;;;;;;;;;;5033877;28;20223;-70
2023/04/25 09:21:55;;;;;;;6.55;0.80;;;;;;;;;;5037683;28;20138;-71
2023/04/25 09:24:32;;;;;;;4.30;0.75;;;;;;;;;;5040683;28;20069;-68
2023/04/25 09:27:02;;;;;;;3.22;0.90;;;;;;;;;;5028551;28;20053;-69
2023/04/25 09:29:30;;;;;;;4.25;1.13;;;;;;;;;;5039874;28;20060;-68
2023/04/25 09:32:11;;;;;;;6.13;1.23;;;;;;;;;;5038624;28;20057;-70
2023/04/25 09:34:39;;;;;;;3.53;1.23;;;;;;;;;;5039799;28;20076;-69
2023/04/25 09:37:06;;;;;;;1.98;0.82;;;;;;;;;;5024660;28;20073;-71
2023/04/25 09:39:37;;;;;;;2.53;1.00;;;;;;;;;;5038311;28;20086;-69
2023/04/25 09:42:04;;;;;;;5.05;0.70;;;;;;;;;;5037742;28;20069;-70
2023/04/25 09:44:30;;;;;;;6.13;1.08;;;;;;;;;;5043329;28;20126;-70
2023/04/25 09:47:04;;;;;;;4.93;1.08;;;;;;;;;;5035089;28;20110;-70
2023/04/25 09:49:31;;;;;;;3.63;0.80;;;;;;;;;;5035185;28;20068;-69
2023/04/25 09:51:57;;;;;;;3.63;0.80;;;;;;;;;;5041548;28;20061;-72
2023/04/25 09:54:24;;;;;;;7.13;1.23;;;;;;;;;;5037944;28;20063;-71
2023/04/25 09:56:54;;;;;;;3.80;0.98;;;;;;;;;;5037225;28;20056;-68
2023/04/25 09:59:21;;;;;;;2.28;0.93;;;;;;;;;;5028165;28;20242;-68
2023/04/25 10:01:48;;;;;;;5.35;1.10;;;;;;;;;;5040513;28;20056;-68
2023/04/25 10:04:17;;;;;;;5.97;1.05;;;;;;;;;;5038093;28;20071;-71
2023/04/25 10:06:43;;;;;;;4.35;1.10;;;;;;;;;;5009490;28;20065;-68
2023/04/25 10:09:13;;;;;;;3.28;1.10;;;;;;;;;;5022835;28;20048;-70
2023/04/25 10:11:40;;;;;;;4.88;1.20;;;;;;;;;;5034397;28;20060;-70
2023/04/25 10:14:08;;;;;;;3.85;1.10;;;;;;;;;;5031529;28;20119;-69
2023/04/25 10:16:35;;;;;;;5.25;0.70;;;;;;;;;;5030077;28;20064;-71
2023/04/25 10:19:02;;;;;;;2.47;1.00;;;;;;;;;;5036112;28;20451;-68
2023/04/25 10:21:30;;;;;;;2.30;0.90;;;;;;;;;;5036209;28;20152;-68
2023/04/25 10:23:57;;;;;;;7.35;1.10;;;;;;;;;;5037634;28;20080;-68
2023/04/25 10:26:26;;;;;;;4.30;1.05;;;;;;;;;;5040481;28;20061;-69
2023/04/25 10:28:56;;;;;;;5.85;0.90;;;;;;;;;;5035745;28;20040;-69
2023/04/25 10:31:24;;;;;;;4.63;1.00;;;;;;;;;;5032973;28;20424;-72
2023/04/25 10:33:51;;;;;;;4.18;0.88;;;;;;;;;;5035730;28;20176;-70
2023/04/25 10:36:18;;;;;;;6.03;1.17;;;;;;;;;;5027746;28;20113;-70
2023/04/25 10:38:45;;;;;;;3.42;0.93;;;;;;;;;;5040425;28;20156;-70
2023/04/25 10:41:16;;;;;;;3.17;0.75;;;;;;;;;;5033074;28;20055;-70
2023/04/25 10:43:43;;;;;;;5.18;1.00;;;;;;;;;;5039472;28;20084;-70
2023/04/25 10:46:17;;;;;;;2.97;0.80;;;;;;;;;;5032730;28;20083;-68
2023/04/25 10:48:49;;;;;;;2.05;0.85;;;;;;;;;;5037695;28;20115;-68
2023/04/25 10:51:20;;;;;;;3.03;1.00;;;;;;;;;;5032993;28;20061;-71
2023/04/25 10:53:47;;;;;;;6.90;0.95;;;;;;;;;;5037276;28;20053;-70
2023/04/25 10:56:17;;;;;;;3.15;0.80;;;;;;;;;;5032574;28;20126;-69
2023/04/25 10:58:45;;;;;;;2.53;0.60;;;;;;;;;;5040512;28;20075;-69
2023/04/25 11:01:13;;;;;;;3.28;0.77;;;;;;;;;;5029660;28;20060;-68
2023/04/25 11:03:41;;;;;;;4.22;0.80;;;;;;;;;;5039495;28;20175;-69
2023/04/25 11:06:16;;;;;;;1.88;0.75;;;;;;;;;;5024121;28;20061;-69
2023/04/25 11:08:47;;;;;;;2.67;0.63;;;;;;;;;;5039382;28;20076;-71
2023/04/25 11:11:15;;;;;;;6.28;0.90;;;;;;;;;;5027570;28;20077;-68
2023/04/25 11:13:41;;;;;;;1.35;0.60;;;;;;;;;;5040063;28;20052;-69
2023/04/25 11:16:08;;;;;;;2.45;0.75;;;;;;;;;;5023063;28;20053;-68
2023/04/25 11:18:38;;;;;;;5.32;0.80;;;;;;;;;;5039291;28;20090;-70
2023/04/25 11:21:06;;;;;;;2.80;0.90;;;;;;;;;;5038323;28;20072;-67
2023/04/25 11:23:34;;;;;;;6.25;0.90;;;;;;;;;;5035000;28;20126;-69
2023/04/25 11:26:01;;;;;;;2.53;0.95;;;;;;;;;;5032255;28;20055;-68
2023/04/25 11:28:28;;;;;;;4.10;1.05;;;;;;;;;;5038830;28;20076;-69
2023/04/25 11:30:56;;;;;;;5.70;0.95;;;;;;;;;;5037159;28;20099;-69
2023/04/25 11:33:24;;;;;;;4.40;0.95;;;;;;;;;;5030523;28;20045;-69
2023/04/25 11:35:50;;;;;;;5.03;1.30;;;;;;;;;;5018846;28;20057;-71
2023/04/25 11:38:17;;;;;;;5.88;0.90;;;;;;;;;;5051482;28;20040;-70
2023/04/25 11:40:46;;;;;;;3.97;1.25;;;;;;;;;;5037777;28;20153;-69
2023/04/25 11:43:12;;;;;;;4.90;0.95;;;;;;;;;;5028040;28;20155;-71
2023/04/25 11:45:39;;;;;;;5.40;1.33;;;;;;;;;;5027858;28;20145;-70
2023/04/25 11:48:05;;;;;;;5.70;1.48;;;;;;;;;;5035670;28;20045;-69
2023/04/25 11:50:35;;;;;;;5.53;1.27;;;;;;;;;;5038238;28;20152;-69
2023/04/25 11:53:06;;;;;;;3.53;1.02;;;;;;;;;;5034058;28;20060;-69
2023/04/25 11:55:32;;;;;;;4.53;0.95;;;;;;;;;;5022950;28;20060;-71
2023/04/25 11:58:01;;;;;;;4.15;1.13;;;;;;;;;;5042010;28;20041;-71
2023/04/25 12:00:27;;;;;;;3.08;1.00;;;;;;;;;;5037684;28;20193;-71
2023/04/25 12:02:58;;;;;;;1.25;0.73;;;;;;;;;;5037614;28;20057;-69
2023/04/25 12:05:25;;;;;;;2.58;0.90;;;;;;;;;;5020418;28;20071;-68
2023/04/25 12:07:52;;;;;;;3.35;0.70;;;;;;;;;;5015865;28;20048;-69
2023/04/25 12:10:19;;;;;;;4.25;1.08;;;;;;;;;;5038946;28;20138;-70
2023/04/25 12:12:46;;;;;;;6.07;1.10;;;;;;;;;;5035851;28;20053;-67
2023/04/25 12:15:17;;;;;;;3.13;0.90;;;;;;;;;;5029601;28;20049;-68
2023/04/25 12:17:45;;;;;;;2.72;0.93;;;;;;;;;;5037448;28;20049;-69
2023/04/25 12:20:13;;;;;;;2.20;0.93;;;;;;;;;;5044432;28;20056;-71
2023/04/25 12:22:45;;;;;;;2.70;0.80;;;;;;;;;;5025092;28;20095;-72
2023/04/25 12:25:12;;;;;;;5.95;1.17;;;;;;;;;;5027594;28;20078;-70
2023/04/25 12:27:41;;;;;;;4.13;0.88;;;;;;;;;;5037338;28;20064;-68
2023/04/25 12:30:11;;;;;;;2.50;0.80;;;;;;;;;;5035672;28;20057;-72
2023/04/25 12:32:41;;;;;;;1.55;0.73;;;;;;;;;;5028104;28;20052;-69
2023/04/25 12:35:12;;;;;;;5.40;1.02;;;;;;;;;;5027602;28;20061;-71
2023/04/25 12:37:39;;;;;;;1.77;0.75;;;;;;;;;;5030366;28;20064;-69
2023/04/25 12:40:08;;;;;;;3.97;0.90;;;;;;;;;;5027508;28;20140;-68
2023/04/25 12:42:35;;;;;;;3.00;0.77;;;;;;;;;;5033157;28;20430;-69
2023/04/25 12:45:08;;;;;;;5.05;1.00;;;;;;;;;;5021183;28;20060;-70
2023/04/25 12:47:35;;;;;;;4.53;1.10;;;;;;;;;;5038116;28;20113;-70
2023/04/25 12:50:05;;;;;;;2.80;0.90;;;;;;;;;;5037796;28;20138;-68
2023/04/25 12:52:32;;;;;;;5.80;1.45;;;;;;;;;;5043140;28;20052;-68
2023/04/25 12:54:58;;;;;;;6.13;0.95;;;;;;;;;;5018282;28;20045;-70
2023/04/25 12:57:25;;;;;;;2.42;0.55;;;;;;;;;;5027377;28;20096;-69
2023/04/25 12:59:52;;;;;;;3.70;0.90;;;;;;;;;;5024667;28;20103;-70
2023/04/25 13:02:21;;;;;;;2.50;0.90;;;;;;;;;;5042088;28;20140;-73
2023/04/25 13:04:48;;;;;;;2.20;0.65;;;;;;;;;;5037601;28;20053;-70
2023/04/25 13:07:16;;;;;;;6.20;1.17;;;;;;;;;;5023782;28;20132;-70
2023/04/25 13:09:43;;;;;;;4.38;1.63;;;;;;;;;;5042670;28;20057;-70
2023/04/25 13:12:09;;;;;;;8.13;1.67;;;;;;;;;;5036906;28;20079;-74
2023/04/25 13:14:36;;;;;;;3.88;1.10;;;;;;;;;;5040356;28;20041;-69
2023/04/25 13:17:04;;;;;;;4.55;1.00;;;;;;;;;;5035779;28;20136;-68
2023/04/25 13:19:31;;;;;;;5.90;1.30;;;;;;;;;;5036193;28;20065;-69
2023/04/25 13:21:58;;;;;;;2.63;0.77;;;;;;;;;;5040173;28;20069;-71
2023/04/25 13:24:26;;;;;;;4.68;1.13;;;;;;;;;;5042008;28;20132;-72
2023/04/25 13:26:52;;;;;;;2.70;1.00;;;;;;;;;;5006241;28;20088;-70
2023/04/25 13:29:19;;;;;;;2.78;0.90;;;;;;;;;;5034339;28;20060;-72
2023/04/25 13:31:45;;;;;;;1.92;0.73;;;;;;;;;;5037957;28;20045;-69
2023/04/25 13:34:12;;;;;;;5.05;1.10;;;;;;;;;;5042037;28;20124;-71
2023/04/25 13:36:39;;;;;;;5.63;1.08;;;;;;;;;;5017918;28;20049;-71
2023/04/25 13:39:06;;;;;;;2.50;0.95;;;;;;;;;;5037924;28;20106;-68
2023/04/25 13:41:34;;;;;;;3.22;0.88;;;;;;;;;;5034110;28;20163;-70
2023/04/25 13:44:01;;;;;;;4.25;1.08;;;;;;;;;;5033162;28;20053;-68
2023/04/25 13:46:27;;;;;;;2.08;0.90;;;;;;;;;;5010983;28;20068;-70
2023/04/25 13:48:54;;;;;;;3.45;0.90;;;;;;;;;;5038747;28;20104;-72
2023/04/25 13:51:20;;;;;;;4.00;0.80;;;;;;;;;;5013707;28;20059;-73
2023/04/25 13:53:46;;;;;;;3.85;1.00;;;;;;;;;;5039383;28;20064;-69
2023/04/25 13:56:13;;;;;;;4.50;0.98;;;;;;;;;;5036400;28;20050;-70
2023/04/25 13:58:41;;;;;;;2.58;0.85;;;;;;;;;;5037182;28;20049;-70
2023/04/25 14:01:09;;;;;;;2.47;0.80;;;;;;;;;;5040325;28;20138;-71
2023/04/25 14:03:41;;;;;;;3.35;0.80;;;;;;;;;;5052081;28;20056;-71
2023/04/25 14:06:08;;;;;;;2.78;0.68;;;;;;;;;;5013633;28;20052;-72
2023/04/25 14:08:34;;;;;;;3.75;1.00;;;;;;;;;;5036770;28;20114;-72
2023/04/25 14:11:03;;;;;;;3.30;0.90;;;;;;;;;;5042589;28;20056;-67
2023/04/25 14:13:29;;;;;;;2.40;0.75;;;;;;;;;;5032372;28;22159;-68
2023/04/25 14:15:57;;;;;;;2.50;0.77;;;;;;;;;;5024667;28;20133;-72
2023/04/25 14:18:24;;;;;;;3.90;1.02;;;;;;;;;;5037237;28;20063;-69
2023/04/25 14:20:51;;;;;;;4.20;0.90;;;;;;;;;;5041280;28;20065;-70
2023/04/25 14:23:17;;;;;;;3.38;0.80;;;;;;;;;;5030686;28;20080;-72
2023/04/25 14:25:44;;;;;;;4.18;0.82;;;;;;;;;;5032300;28;20061;-70
2023/04/25 14:28:11;;;;;;;3.70;0.90;;;;;;;;;;5029404;28;20140;-69
2023/04/25 14:30:37;;;;;;;5.88;1.20;;;;;;;;;;5040255;28;20114;-71
2023/04/25 14:33:08;;;;;;;5.70;1.00;;;;;;;;;;5036977;28;20048;-68
2023/04/25 14:35:38;;;;;;;3.55;1.00;;;;;;;;;;5028019;28;20131;-70
2023/04/25 14:38:05;;;;;;;4.63;1.02;;;;;;;;;;5041270;28;20441;-68
2023/04/25 14:40:31;;;;;;;2.10;0.88;;;;;;;;;;5036581;28;20056;-71
2023/04/25 14:42:58;;;;;;;5.30;1.10;;;;;;;;;;5040417;28;20079;-69
2023/04/25 14:45:24;;;;;;;3.72;1.10;;;;;;;;;;5018616;28;20160;-69